Time;durP1;ratioP1;P1;durP2;ratioP2;P2;SDS_P1;SDS_P2;PMS_P1;PMS_P2;Temp;Humidity;BMP_temperature;BMP_pressure;BME280_temperature;BME280_humidity;BME280_pressure;Samples;Min_cycle;Max_cycle;Signal;HPM_P1;HPM_P2
2021/08/22 00:01:38;;;;;;;3.60;2.50;;;20.60;99.90;;;;;;4151216;28;20057;-69
2021/08/22 00:03:39;;;;;;;2.92;2.00;;;20.60;99.90;;;;;;4153027;28;20382;-69
2021/08/22 00:05:39;;;;;;;4.47;2.55;;;20.60;99.90;;;;;;4144165;28;20031;-69
2021/08/22 00:07:40;;;;;;;3.47;2.05;;;20.60;99.90;;;;;;4140217;28;20046;-69
2021/08/22 00:09:40;;;;;;;3.60;2.40;;;20.60;99.90;;;;;;4139451;28;20034;-69
2021/08/22 00:11:41;;;;;;;3.50;2.50;;;20.60;99.90;;;;;;4132821;28;20074;-69
2021/08/22 00:13:41;;;;;;;4.90;2.50;;;20.60;99.90;;;;;;4131380;28;20060;-69
2021/08/22 00:15:43;;;;;;;3.25;2.10;;;20.60;99.90;;;;;;4136702;28;20102;-69
2021/08/22 00:23:37;;;;;;;3.85;2.72;;;20.50;99.90;;;;;;4142540;28;20042;-69
2021/08/22 00:25:37;;;;;;;2.45;1.92;;;20.60;99.90;;;;;;4140219;28;20030;-69
2021/08/22 00:27:38;;;;;;;2.47;1.80;;;20.60;99.90;;;;;;4151874;28;20156;-69
2021/08/22 00:29:39;;;;;;;2.40;1.83;;;20.50;99.90;;;;;;4141135;28;20069;-69
2021/08/22 00:31:39;;;;;;;2.92;1.63;;;20.50;99.90;;;;;;4139829;28;20030;-69
2021/08/22 00:33:40;;;;;;;4.47;2.00;;;20.60;99.90;;;;;;4156676;28;20034;-69
2021/08/22 00:35:40;;;;;;;3.35;1.90;;;20.40;99.90;;;;;;4130756;28;20406;-69
2021/08/22 00:37:41;;;;;;;3.42;1.42;;;20.40;99.90;;;;;;4135040;28;20961;-69
2021/08/22 00:39:42;;;;;;;2.53;1.55;;;20.40;99.90;;;;;;4126374;28;20422;-69
2021/08/22 00:41:42;;;;;;;2.78;1.60;;;20.40;99.90;;;;;;4126284;28;20038;-69
2021/08/22 00:43:44;;;;;;;3.38;1.48;;;20.30;99.90;;;;;;4129780;28;20046;-69
2021/08/22 00:45:44;;;;;;;1.77;1.60;;;20.30;99.90;;;;;;4140313;28;20122;-69
2021/08/22 00:47:47;;;;;;;1.30;1.15;;;20.30;99.90;;;;;;4134474;28;20030;-69
2021/08/22 00:49:47;;;;;;;2.72;1.42;;;20.30;99.90;;;;;;4140325;28;20683;-69
2021/08/22 00:51:48;;;;;;;2.30;1.20;;;20.30;99.90;;;;;;4150084;28;20059;-69
2021/08/22 00:53:49;;;;;;;2.60;1.55;;;20.30;99.90;;;;;;4155256;28;20044;-69
2021/08/22 00:55:53;;;;;;;1.77;1.33;;;20.30;99.90;;;;;;4146103;28;20290;-69
2021/08/22 00:57:54;;;;;;;2.03;1.23;;;20.30;99.90;;;;;;4144031;28;20087;-69
2021/08/22 00:59:54;;;;;;;2.03;1.40;;;20.30;99.90;;;;;;4139922;28;20030;-69
2021/08/22 01:01:59;;;;;;;2.58;1.10;;;20.30;99.90;;;;;;4147423;28;20037;-69
2021/08/22 01:04:03;;;;;;;3.42;1.33;;;20.30;99.90;;;;;;4149327;28;20124;-69
2021/08/22 01:06:30;;;;;;;1.52;1.30;;;20.30;99.90;;;;;;4139774;28;20030;-69
2021/08/22 01:08:41;;;;;;;1.77;1.27;;;20.30;99.90;;;;;;4137833;28;20117;-69
2021/08/22 01:10:45;;;;;;;2.38;1.35;;;20.20;99.90;;;;;;4150774;28;20045;-69
2021/08/22 01:12:51;;;;;;;2.25;1.40;;;20.20;99.90;;;;;;4159418;28;20040;-69
2021/08/22 01:14:56;;;;;;;1.25;1.13;;;20.20;99.90;;;;;;4136186;28;20034;-69
2021/08/22 01:16:59;;;;;;;2.05;1.52;;;20.20;99.90;;;;;;4145271;28;20428;-69
2021/08/22 01:19:00;;;;;;;;;;;20.10;99.90;;;;;;4156140;28;20482;-69
2021/08/22 01:21:09;;;;;;;3.05;1.85;;;20.10;99.90;;;;;;4154902;28;19920;-69
2021/08/22 01:23:11;;;;;;;3.78;1.77;;;20.10;99.90;;;;;;4156804;28;20476;-69
2021/08/22 01:25:14;;;;;;;2.70;1.47;;;20.00;99.90;;;;;;4152249;28;20037;-69
2021/08/22 01:27:16;;;;;;;2.60;1.63;;;20.00;99.90;;;;;;4142399;28;20253;-69
2021/08/22 01:29:17;;;;;;;7.80;2.22;;;20.00;99.90;;;;;;4152788;28;20125;-69
2021/08/22 01:31:22;;;;;;;2.60;2.13;;;19.90;99.90;;;;;;4151195;28;20076;-69
2021/08/22 01:33:23;;;;;;;3.08;2.10;;;19.90;99.90;;;;;;4146457;28;20079;-69
2021/08/22 01:35:24;;;;;;;3.88;2.15;;;19.90;99.90;;;;;;4149283;28;20033;-69
2021/08/22 01:37:25;;;;;;;4.07;2.28;;;19.90;99.90;;;;;;4143762;28;20037;-69
2021/08/22 01:39:27;;;;;;;2.40;1.90;;;19.90;99.90;;;;;;4139810;28;20038;-69
2021/08/22 01:41:28;;;;;;;3.08;2.05;;;19.90;99.90;;;;;;4145674;28;20486;-68
2021/08/22 01:43:31;;;;;;;2.60;2.10;;;19.80;99.90;;;;;;4144104;28;20145;-68
2021/08/22 01:45:33;;;;;;;4.72;2.20;;;19.80;99.90;;;;;;4140210;28;20033;-69
2021/08/22 01:47:35;;;;;;;2.80;1.95;;;19.80;99.90;;;;;;4140704;28;20030;-69
2021/08/22 01:49:36;;;;;;;6.38;2.30;;;19.80;99.90;;;;;;4141817;28;20046;-69
2021/08/22 01:51:38;;;;;;;2.83;1.80;;;19.80;99.90;;;;;;4123988;28;20019;-69
2021/08/22 01:53:39;;;;;;;2.25;1.95;;;19.80;99.90;;;;;;4143623;28;20120;-69
2021/08/22 01:55:41;;;;;;;2.13;1.85;;;19.80;99.90;;;;;;4149642;28;20049;-69
2021/08/22 01:57:45;;;;;;;2.72;1.73;;;19.80;99.90;;;;;;4149663;28;20474;-69
2021/08/22 01:59:45;;;;;;;3.45;2.10;;;19.70;99.90;;;;;;4147360;28;20042;-69
2021/08/22 02:01:46;;;;;;;2.97;2.00;;;19.70;99.90;;;;;;4145778;28;20026;-69
2021/08/22 02:03:58;;;;;;;3.28;1.98;;;19.70;99.90;;;;;;4146321;28;20038;-69
2021/08/22 02:06:06;;;;;;;4.07;2.10;;;19.70;99.90;;;;;;4150724;28;20038;-69
2021/08/22 02:08:17;;;;;;;3.30;2.00;;;19.70;99.90;;;;;;4144532;28;20281;-69
2021/08/22 02:10:41;;;;;;;3.70;2.20;;;19.70;99.90;;;;;;4147827;28;20117;-69
2021/08/22 02:12:46;;;;;;;2.70;1.77;;;19.60;99.90;;;;;;4138565;28;20121;-69
2021/08/22 02:15:06;;;;;;;3.17;1.88;;;19.60;99.90;;;;;;4144661;28;20034;-69
2021/08/22 02:17:07;;;;;;;2.63;2.05;;;19.70;99.90;;;;;;4156074;28;20033;-69
2021/08/22 02:19:08;;;;;;;2.60;1.88;;;19.70;99.90;;;;;;4151075;28;20041;-69
2021/08/22 02:21:09;;;;;;;3.35;2.00;;;19.70;99.90;;;;;;4141756;28;20586;-69
2021/08/22 02:23:11;;;;;;;3.03;1.90;;;19.70;99.90;;;;;;4139997;28;20062;-69
2021/08/22 02:25:13;;;;;;;4.35;2.63;;;19.70;99.90;;;;;;4132481;28;20101;-69
2021/08/22 02:27:15;;;;;;;4.05;2.53;;;19.70;99.90;;;;;;4130210;28;20034;-69
2021/08/22 02:29:16;;;;;;;2.88;2.05;;;19.70;99.90;;;;;;4131633;28;20117;-69
2021/08/22 02:31:16;;;;;;;2.88;2.30;;;19.70;99.90;;;;;;4132970;28;20450;-69
2021/08/22 02:33:18;;;;;;;3.70;2.60;;;19.80;99.90;;;;;;4130049;28;20093;-69
2021/08/22 02:35:18;;;;;;;3.60;2.67;;;19.80;99.90;;;;;;4144625;28;20040;-69
2021/08/22 02:37:19;;;;;;;4.63;2.42;;;19.70;99.90;;;;;;4134612;28;20117;-69
2021/08/22 02:39:19;;;;;;;2.88;2.25;;;19.80;99.90;;;;;;4134186;28;20073;-69
2021/08/22 02:41:20;;;;;;;2.53;2.15;;;19.80;99.90;;;;;;4137603;28;20099;-69
2021/08/22 02:43:21;;;;;;;3.00;2.40;;;19.70;99.90;;;;;;4144957;28;20049;-69
2021/08/22 02:45:21;;;;;;;3.45;2.25;;;19.80;99.90;;;;;;4156074;28;20046;-68
2021/08/22 02:47:22;;;;;;;3.95;2.70;;;19.80;99.90;;;;;;4122091;28;20038;-68
2021/08/22 02:49:22;;;;;;;5.45;2.70;;;19.70;99.90;;;;;;4147683;28;20034;-69
2021/08/22 02:51:23;;;;;;;4.88;2.72;;;19.70;99.90;;;;;;4155762;28;20068;-69
2021/08/22 02:53:24;;;;;;;4.20;2.38;;;19.70;99.90;;;;;;4148238;28;20131;-69
2021/08/22 02:55:24;;;;;;;3.42;2.55;;;19.70;99.90;;;;;;4152933;28;20505;-69
2021/08/22 02:57:25;;;;;;;5.57;2.78;;;19.60;99.90;;;;;;4155510;28;20127;-69
2021/08/22 02:59:26;;;;;;;4.22;2.97;;;19.60;99.90;;;;;;4146835;28;20441;-69
2021/08/22 03:01:26;;;;;;;4.32;2.60;;;19.60;99.90;;;;;;4144379;28;20034;-69
2021/08/22 03:03:27;;;;;;;4.50;3.05;;;19.60;99.90;;;;;;4141949;28;20121;-69
2021/08/22 03:05:27;;;;;;;3.42;2.83;;;19.60;99.90;;;;;;4151648;28;20102;-69
2021/08/22 03:07:28;;;;;;;4.22;3.25;;;19.60;99.90;;;;;;4148978;28;20049;-69
2021/08/22 03:09:28;;;;;;;3.33;2.60;;;19.50;99.90;;;;;;4129856;28;20109;-69
2021/08/22 03:11:33;;;;;;;3.80;2.70;;;19.50;99.90;;;;;;4132747;28;20030;-69
2021/08/22 03:13:33;;;;;;;4.32;3.50;;;19.60;99.90;;;;;;4130153;28;20039;-69
2021/08/22 03:15:34;;;;;;;7.05;4.90;;;19.60;99.90;;;;;;4135446;28;20045;-69
2021/08/22 03:17:35;;;;;;;6.95;5.65;;;19.50;99.90;;;;;;4133265;28;20045;-69
2021/08/22 03:19:36;;;;;;;11.48;6.20;;;19.50;99.90;;;;;;4129603;28;20511;-69
2021/08/22 03:21:37;;;;;;;12.05;6.85;;;19.40;99.90;;;;;;4134331;28;20029;-69
2021/08/22 03:23:37;;;;;;;10.63;7.18;;;19.40;99.90;;;;;;4128514;28;20108;-69
2021/08/22 03:25:38;;;;;;;10.55;6.72;;;19.40;99.90;;;;;;4137421;28;20305;-69
2021/08/22 03:27:39;;;;;;;10.30;7.13;;;19.40;99.90;;;;;;4133367;28;20077;-69
2021/08/22 03:29:40;;;;;;;9.25;6.72;;;19.30;99.90;;;;;;4151134;28;20065;-69
2021/08/22 03:31:40;;;;;;;7.60;6.18;;;19.40;99.90;;;;;;4139565;28;20494;-69
2021/08/22 03:33:41;;;;;;;8.35;6.80;;;19.40;99.90;;;;;;4147340;28;20053;-69
2021/08/22 03:35:41;;;;;;;10.70;9.23;;;19.40;99.90;;;;;;4143062;28;20037;-69
2021/08/22 03:37:42;;;;;;;12.60;8.95;;;19.40;99.90;;;;;;4151598;28;20417;-69
2021/08/22 03:39:43;;;;;;;10.55;8.18;;;19.40;99.90;;;;;;4141839;28;20041;-69
2021/08/22 03:41:43;;;;;;;11.73;8.95;;;19.40;99.90;;;;;;4155338;28;20036;-69
2021/08/22 03:43:44;;;;;;;12.50;9.27;;;19.40;99.90;;;;;;4156566;28;20033;-69
2021/08/22 03:45:44;;;;;;;12.50;8.05;;;19.40;99.90;;;;;;4137482;28;20061;-69
2021/08/22 03:47:45;;;;;;;10.45;7.28;;;19.40;99.90;;;;;;4147430;28;20403;-69
2021/08/22 03:49:45;;;;;;;12.85;7.57;;;19.40;99.90;;;;;;4151354;28;20034;-69
2021/08/22 03:51:46;;;;;;;12.38;8.35;;;19.40;99.90;;;;;;4141688;28;20098;-69
2021/08/22 03:53:47;;;;;;;10.80;7.88;;;19.40;99.90;;;;;;4147854;28;20045;-69
2021/08/22 03:55:47;;;;;;;8.95;6.90;;;19.50;99.90;;;;;;4150464;28;20037;-69
2021/08/22 03:57:48;;;;;;;12.98;8.70;;;19.50;99.90;;;;;;4155126;28;20026;-69
2021/08/22 03:59:49;;;;;;;8.40;6.95;;;19.50;99.90;;;;;;4138805;28;20041;-69
2021/08/22 04:01:49;;;;;;;11.77;8.50;;;19.50;99.90;;;;;;4132626;28;20037;-69
2021/08/22 04:03:50;;;;;;;11.13;8.40;;;19.50;99.90;;;;;;4138797;28;20122;-69
2021/08/22 04:05:51;;;;;;;15.20;7.90;;;19.50;99.90;;;;;;4132167;28;20085;-69
2021/08/22 04:07:54;;;;;;;12.90;8.88;;;19.50;99.90;;;;;;4134869;28;20105;-69
2021/08/22 04:09:56;;;;;;;10.20;8.27;;;19.60;99.90;;;;;;4132816;28;20382;-69
2021/08/22 04:11:57;;;;;;;9.20;7.68;;;19.50;99.90;;;;;;4132403;28;20026;-69
2021/08/22 04:13:58;;;;;;;8.05;6.90;;;19.50;99.90;;;;;;4122426;28;20563;-69
2021/08/22 04:15:58;;;;;;;10.95;8.25;;;19.50;99.90;;;;;;4140130;28;20073;-69
2021/08/22 04:17:59;;;;;;;7.95;6.55;;;19.60;99.90;;;;;;4141310;28;20116;-69
2021/08/22 04:19:59;;;;;;;8.70;7.32;;;19.60;99.90;;;;;;4148655;28;20096;-69
2021/08/22 04:22:01;;;;;;;9.88;8.23;;;19.60;99.90;;;;;;4155331;28;20041;-69
2021/08/22 04:24:03;;;;;;;10.80;7.65;;;19.60;99.90;;;;;;4148822;28;20129;-69
2021/08/22 04:26:07;;;;;;;8.70;6.45;;;19.60;99.90;;;;;;4136610;28;20033;-69
2021/08/22 04:28:08;;;;;;;11.32;7.32;;;19.60;99.90;;;;;;4151234;28;20034;-69
2021/08/22 04:30:12;;;;;;;9.80;7.40;;;19.60;99.90;;;;;;4155038;28;20397;-69
2021/08/22 04:32:13;;;;;;;9.32;7.53;;;19.60;99.90;;;;;;4154221;28;20033;-69
2021/08/22 04:34:14;;;;;;;11.40;8.45;;;19.60;99.90;;;;;;4151622;28;20025;-69
2021/08/22 04:36:15;;;;;;;8.98;7.43;;;19.50;99.90;;;;;;4146463;28;20062;-69
2021/08/22 04:38:15;;;;;;;11.25;7.88;;;19.50;99.90;;;;;;4150484;28;20070;-69
2021/08/22 04:40:16;;;;;;;8.90;7.40;;;19.50;99.90;;;;;;4140866;28;20064;-69
2021/08/22 04:42:17;;;;;;;10.80;8.40;;;19.50;99.90;;;;;;4136304;28;20418;-69
2021/08/22 04:44:17;;;;;;;15.35;9.55;;;19.50;99.90;;;;;;4139774;28;20427;-69
2021/08/22 04:46:19;;;;;;;11.50;9.10;;;19.50;99.90;;;;;;4144448;28;20510;-69
2021/08/22 04:48:20;;;;;;;10.32;8.45;;;19.40;99.90;;;;;;4153741;28;20065;-69
2021/08/22 04:50:20;;;;;;;11.80;8.68;;;19.40;99.90;;;;;;4146449;28;20390;-69
2021/08/22 04:52:21;;;;;;;11.68;8.57;;;19.40;99.90;;;;;;4127673;28;20195;-68
2021/08/22 04:54:23;;;;;;;10.57;8.90;;;19.40;99.90;;;;;;4135142;28;20365;-69
2021/08/22 04:56:24;;;;;;;10.35;8.45;;;19.40;99.90;;;;;;4137310;28;20379;-68
2021/08/22 04:58:24;;;;;;;11.77;9.05;;;19.40;99.90;;;;;;4131674;28;20034;-68
2021/08/22 05:00:25;;;;;;;11.93;9.82;;;19.40;99.90;;;;;;4137701;28;20088;-70
2021/08/22 05:02:26;;;;;;;12.70;9.85;;;19.40;99.90;;;;;;4134256;28;20092;-70
2021/08/22 05:04:28;;;;;;;11.68;8.85;;;19.40;99.90;;;;;;4143893;28;20046;-70
2021/08/22 05:06:29;;;;;;;15.05;10.75;;;19.40;99.90;;;;;;4137780;28;20025;-70
2021/08/22 05:08:29;;;;;;;13.25;10.07;;;19.40;99.90;;;;;;4154204;28;20358;-70
2021/08/22 05:10:30;;;;;;;12.07;9.80;;;19.40;99.90;;;;;;4140942;28;22796;-70
2021/08/22 05:12:30;;;;;;;14.75;9.73;;;19.40;99.90;;;;;;4148897;28;20562;-71
2021/08/22 05:14:34;;;;;;;17.98;11.85;;;19.40;99.90;;;;;;4145465;28;20030;-71
2021/08/22 05:16:35;;;;;;;13.70;10.18;;;19.40;99.90;;;;;;4152645;28;20038;-71
2021/08/22 05:18:36;;;;;;;14.52;10.48;;;19.40;99.90;;;;;;4154128;28;20075;-71
2021/08/22 05:20:37;;;;;;;12.32;9.52;;;19.50;99.90;;;;;;4155054;28;20040;-71
2021/08/22 05:22:37;;;;;;;14.23;10.85;;;19.50;99.90;;;;;;4147951;28;20458;-71
2021/08/22 05:24:38;;;;;;;13.98;10.05;;;19.50;99.90;;;;;;4139536;28;20446;-71
2021/08/22 05:26:38;;;;;;;17.63;10.93;;;19.50;99.90;;;;;;4138069;28;20037;-71
2021/08/22 05:28:39;;;;;;;17.73;11.98;;;19.50;99.90;;;;;;4138843;28;20390;-71
2021/08/22 05:30:39;;;;;;;16.02;11.27;;;19.40;99.90;;;;;;4149415;28;20066;-71
2021/08/22 05:32:40;;;;;;;16.13;11.70;;;19.40;99.90;;;;;;4141806;28;20517;-71
2021/08/22 05:34:40;;;;;;;17.67;12.18;;;19.40;99.90;;;;;;4148183;28;20486;-71
2021/08/22 05:36:42;;;;;;;18.55;12.40;;;19.40;99.90;;;;;;4153123;28;20053;-71
2021/08/22 05:38:43;;;;;;;19.23;13.55;;;19.40;99.90;;;;;;4149021;28;20532;-71
2021/08/22 05:40:43;;;;;;;16.65;12.40;;;19.40;99.90;;;;;;4146278;28;20033;-71
2021/08/22 05:42:44;;;;;;;16.83;12.45;;;19.40;99.90;;;;;;4147188;28;20494;-71
2021/08/22 05:44:44;;;;;;;20.55;14.57;;;19.40;99.90;;;;;;4140246;28;20038;-71
2021/08/22 05:46:45;;;;;;;22.88;15.65;;;19.40;99.90;;;;;;4131658;28;20037;-71
2021/08/22 05:48:45;;;;;;;19.95;14.38;;;19.30;99.90;;;;;;4164480;28;20072;-71
2021/08/22 05:50:46;;;;;;;19.08;13.65;;;19.30;99.90;;;;;;4149455;28;20030;-71
2021/08/22 05:52:46;;;;;;;24.55;15.68;;;19.40;99.90;;;;;;4151879;28;20042;-71
2021/08/22 05:54:47;;;;;;;22.80;15.45;;;19.30;99.90;;;;;;4142857;28;20548;-71
2021/08/22 05:56:48;;;;;;;22.40;16.33;;;19.30;99.90;;;;;;4145916;28;20057;-71
2021/08/22 05:58:48;;;;;;;23.23;16.65;;;19.40;99.90;;;;;;4150624;28;20120;-71
2021/08/22 06:00:49;;;;;;;25.30;16.73;;;19.30;99.90;;;;;;4147771;28;20449;-71
2021/08/22 06:02:50;;;;;;;19.77;14.25;;;19.30;99.90;;;;;;4139207;28;21006;-71
2021/08/22 06:04:50;;;;;;;27.95;17.40;;;19.30;99.90;;;;;;4137680;28;20046;-71
2021/08/22 06:06:51;;;;;;;25.45;18.45;;;19.40;99.90;;;;;;4138108;28;20076;-71
2021/08/22 06:08:51;;;;;;;26.52;18.25;;;19.30;99.90;;;;;;4138853;28;20038;-71
2021/08/22 06:10:52;;;;;;;22.95;16.35;;;19.30;99.90;;;;;;4138553;28;20144;-71
2021/08/22 06:12:53;;;;;;;27.10;18.20;;;19.30;99.90;;;;;;4139981;28;20041;-71
2021/08/22 06:14:53;;;;;;;25.80;17.42;;;19.30;99.90;;;;;;4120341;28;20125;-71
2021/08/22 06:16:54;;;;;;;23.83;17.85;;;19.20;99.90;;;;;;4138726;28;20125;-71
2021/08/22 06:18:56;;;;;;;23.17;16.90;;;19.20;99.90;;;;;;4143051;28;20034;-71
2021/08/22 06:20:56;;;;;;;24.00;16.70;;;19.20;99.90;;;;;;4149092;28;20367;-71
2021/08/22 06:22:57;;;;;;;21.10;16.00;;;19.20;99.90;;;;;;4152367;28;20103;-71
2021/08/22 06:24:58;;;;;;;23.15;17.05;;;19.20;99.90;;;;;;4150942;28;20120;-70
2021/08/22 06:26:59;;;;;;;26.92;18.67;;;19.20;99.90;;;;;;4150597;28;20026;-71
2021/08/22 06:29:00;;;;;;;24.40;16.92;;;19.20;99.90;;;;;;4157686;28;20068;-71
2021/08/22 06:31:00;;;;;;;21.63;14.98;;;19.20;99.90;;;;;;4144108;28;20115;-71
2021/08/22 06:33:01;;;;;;;25.48;17.35;;;19.20;99.90;;;;;;4144861;28;20078;-71
2021/08/22 06:35:01;;;;;;;21.35;14.82;;;19.20;99.90;;;;;;4149941;28;20057;-71
2021/08/22 06:37:02;;;;;;;22.52;16.17;;;19.20;99.90;;;;;;4150435;28;20033;-70
2021/08/22 06:39:02;;;;;;;19.95;15.18;;;19.20;99.90;;;;;;4148343;28;20511;-70
2021/08/22 06:41:03;;;;;;;21.20;15.15;;;19.20;99.90;;;;;;4144541;28;20504;-71
2021/08/22 06:43:04;;;;;;;22.17;14.60;;;19.30;99.90;;;;;;4149829;28;20033;-71
2021/08/22 06:45:05;;;;;;;20.60;14.63;;;19.30;99.90;;;;;;4143071;28;20064;-71
2021/08/22 06:47:07;;;;;;;19.75;14.05;;;19.30;99.90;;;;;;4142501;28;20483;-70
2021/08/22 06:49:08;;;;;;;19.95;14.75;;;19.30;99.90;;;;;;4153987;28;20041;-70
2021/08/22 06:51:09;;;;;;;19.55;13.20;;;19.30;99.90;;;;;;4150573;28;20173;-69
2021/08/22 06:53:10;;;;;;;20.70;14.55;;;19.40;99.90;;;;;;4122205;28;20031;-71
2021/08/22 06:55:11;;;;;;;20.42;13.57;;;19.40;99.90;;;;;;4140145;28;20038;-71
2021/08/22 06:57:14;;;;;;;21.50;14.20;;;19.40;99.90;;;;;;4132466;28;20027;-71
2021/08/22 06:59:14;;;;;;;19.38;13.82;;;19.40;99.90;;;;;;4142608;28;20060;-71
2021/08/22 07:01:16;;;;;;;15.60;12.07;;;19.40;99.90;;;;;;4147793;28;20502;-71
2021/08/22 07:03:17;;;;;;;20.63;14.45;;;19.40;99.90;;;;;;4147819;28;20033;-71
2021/08/22 07:05:17;;;;;;;18.48;12.90;;;19.40;99.90;;;;;;4141182;28;20371;-70
2021/08/22 07:07:18;;;;;;;17.98;12.63;;;19.40;99.90;;;;;;4145889;28;20506;-71
2021/08/22 07:09:18;;;;;;;17.33;11.55;;;19.40;99.90;;;;;;4140419;28;21160;-70
2021/08/22 07:11:19;;;;;;;19.73;12.95;;;19.50;99.90;;;;;;4125726;28;20062;-70
2021/08/22 07:13:19;;;;;;;17.42;11.75;;;19.50;99.90;;;;;;4137050;28;20037;-69
2021/08/22 07:15:20;;;;;;;14.95;11.30;;;19.50;99.90;;;;;;4151225;28;20116;-69
2021/08/22 07:17:22;;;;;;;16.27;10.55;;;19.50;99.90;;;;;;4154887;28;20481;-70
2021/08/22 07:19:22;;;;;;;12.77;9.85;;;19.50;99.90;;;;;;4148989;28;20144;-69
2021/08/22 07:21:23;;;;;;;14.48;9.60;;;19.50;99.90;;;;;;4142939;28;20042;-68
2021/08/22 07:23:23;;;;;;;10.63;8.27;;;19.60;99.90;;;;;;4147280;28;20418;-69
2021/08/22 07:25:24;;;;;;;14.52;9.98;;;19.60;99.90;;;;;;4152213;28;20044;-69
2021/08/22 07:27:26;;;;;;;13.80;9.85;;;19.60;99.90;;;;;;4144556;28;20153;-69
2021/08/22 07:29:26;;;;;;;13.00;9.20;;;19.60;99.90;;;;;;4138997;28;20048;-70
2021/08/22 07:31:27;;;;;;;13.80;9.57;;;19.70;99.90;;;;;;4150773;28;20054;-69
2021/08/22 07:33:27;;;;;;;11.90;8.07;;;19.70;99.90;;;;;;4148416;28;20034;-69
2021/08/22 07:35:28;;;;;;;12.45;9.07;;;19.70;99.90;;;;;;4154246;28;20041;-69
2021/08/22 07:37:28;;;;;;;11.70;8.60;;;19.80;99.90;;;;;;4152221;28;20052;-69
2021/08/22 07:39:29;;;;;;;12.02;7.95;;;19.80;99.90;;;;;;4150660;28;20041;-70
2021/08/22 07:41:30;;;;;;;12.50;8.02;;;19.80;99.90;;;;;;4151495;28;20536;-69
2021/08/22 07:43:31;;;;;;;17.30;9.45;;;19.90;99.90;;;;;;4147934;28;20068;-69
2021/08/22 07:45:32;;;;;;;13.60;8.97;;;19.90;99.90;;;;;;4149089;28;20052;-69
2021/08/22 07:47:33;;;;;;;11.57;8.00;;;19.90;99.90;;;;;;4154013;28;20120;-69
2021/08/22 07:49:33;;;;;;;10.25;7.22;;;20.00;99.90;;;;;;4154653;28;20029;-69
2021/08/22 07:51:34;;;;;;;10.82;6.68;;;20.00;99.90;;;;;;4152610;28;20037;-69
2021/08/22 07:53:36;;;;;;;10.98;7.70;;;20.10;99.90;;;;;;4148826;28;20037;-69
2021/08/22 07:55:36;;;;;;;9.07;6.55;;;20.10;99.90;;;;;;4147136;28;20044;-68
2021/08/22 07:57:38;;;;;;;9.82;7.10;;;20.20;99.90;;;;;;4152924;28;20041;-68
2021/08/22 07:59:38;;;;;;;13.32;6.47;;;20.10;99.90;;;;;;4157793;28;20043;-68
2021/08/22 08:01:39;;;;;;;10.07;6.95;;;20.20;99.90;;;;;;4155066;28;20036;-68
2021/08/22 08:03:39;;;;;;;11.00;7.00;;;20.20;99.90;;;;;;4157584;28;20029;-69
2021/08/22 08:05:40;;;;;;;9.35;6.38;;;20.20;99.90;;;;;;4156339;28;20029;-69
2021/08/22 08:07:41;;;;;;;9.07;6.47;;;20.20;99.90;;;;;;4151767;28;20675;-69
2021/08/22 08:09:41;;;;;;;7.72;5.38;;;20.20;99.90;;;;;;4151703;28;20038;-69
2021/08/22 08:11:42;;;;;;;7.05;5.15;;;20.20;99.90;;;;;;4133679;28;20034;-69
2021/08/22 08:13:43;;;;;;;7.97;4.80;;;20.20;99.90;;;;;;4149205;28;20034;-69
2021/08/22 08:15:43;;;;;;;8.57;6.32;;;20.20;99.90;;;;;;4146186;28;20026;-69
2021/08/22 08:17:45;;;;;;;6.22;4.90;;;20.20;99.90;;;;;;4144268;28;20035;-69
2021/08/22 08:19:45;;;;;;;10.63;5.88;;;20.20;99.90;;;;;;4137496;28;20034;-69
2021/08/22 08:21:46;;;;;;;7.57;4.93;;;20.20;99.90;;;;;;4156262;28;20172;-69
2021/08/22 08:23:47;;;;;;;5.57;4.22;;;20.30;99.90;;;;;;4149359;28;20032;-69
2021/08/22 08:25:47;;;;;;;7.43;4.75;;;20.30;99.90;;;;;;4144674;28;20101;-69
2021/08/22 08:27:48;;;;;;;10.70;4.28;;;20.30;99.90;;;;;;4154754;28;20056;-69
2021/08/22 08:29:50;;;;;;;9.23;5.90;;;20.40;99.90;;;;;;4148544;28;20038;-69
2021/08/22 08:31:50;;;;;;;7.80;4.73;;;20.40;99.90;;;;;;4158785;28;20100;-69
2021/08/22 08:33:51;;;;;;;11.05;5.60;;;20.40;99.90;;;;;;4149000;28;20759;-69
2021/08/22 08:35:51;;;;;;;9.23;5.43;;;20.40;99.90;;;;;;4144726;28;20034;-69
2021/08/22 08:37:52;;;;;;;8.57;5.22;;;20.40;99.90;;;;;;4141244;28;20057;-69
2021/08/22 08:39:53;;;;;;;7.68;5.60;;;20.40;99.90;;;;;;4142841;28;20083;-69
2021/08/22 08:42:29;;;;;;;9.52;4.85;;;20.50;99.90;;;;;;4153139;28;20457;-69
2021/08/22 08:44:29;;;;;;;8.30;4.90;;;20.60;99.90;;;;;;4147822;28;20046;-69
2021/08/22 08:46:39;;;;;;;7.25;5.28;;;20.60;99.90;;;;;;4141370;28;20072;-69
2021/08/22 08:49:04;;;;;;;10.20;6.30;;;20.60;99.90;;;;;;4155653;28;20079;-69
2021/08/22 08:51:13;;;;;;;8.07;5.20;;;20.60;99.90;;;;;;4137027;28;20045;-69
2021/08/22 08:53:37;;;;;;;8.73;5.78;;;20.70;99.90;;;;;;4139490;28;20066;-69
2021/08/22 08:55:44;;;;;;;9.55;6.10;;;20.70;99.90;;;;;;4149723;28;20046;-69
2021/08/22 08:57:45;;;;;;;8.32;4.78;;;20.70;99.90;;;;;;4155704;28;20095;-69
2021/08/22 08:59:46;;;;;;;9.52;5.28;;;20.80;99.90;;;;;;4150787;28;20038;-69
2021/08/22 09:01:46;;;;;;;8.10;5.10;;;20.70;99.90;;;;;;4151278;28;20044;-69
2021/08/22 09:04:06;;;;;;;8.68;5.13;;;20.70;99.90;;;;;;4152653;28;20034;-69
2021/08/22 09:06:33;;;;;;;5.03;3.72;;;20.80;99.90;;;;;;4140001;28;20464;-70
2021/08/22 09:09:10;;;;;;;6.13;4.13;;;20.80;99.90;;;;;;4134376;28;20026;-70
2021/08/22 09:11:29;;;;;;;6.53;4.57;;;21.00;99.90;;;;;;4154487;28;20041;-70
2021/08/22 09:14:08;;;;;;;6.95;3.80;;;21.10;99.90;;;;;;4150391;28;20038;-70
2021/08/22 09:16:46;;;;;;;9.48;4.88;;;21.20;99.90;;;;;;4151045;28;20046;-69
2021/08/22 09:19:24;;;;;;;7.18;4.00;;;21.20;99.90;;;;;;4152226;28;20025;-70
2021/08/22 09:22:01;;;;;;;5.13;3.30;;;21.30;99.90;;;;;;4137113;28;20038;-70
2021/08/22 09:24:29;;;;;;;4.82;3.60;;;21.40;99.90;;;;;;4142354;28;20052;-70
2021/08/22 09:27:03;;;;;;;5.10;3.53;;;21.40;99.90;;;;;;4149483;28;20064;-70
2021/08/22 09:29:41;;;;;;;5.30;3.55;;;21.40;99.90;;;;;;4152790;28;20072;-70
2021/08/22 09:32:00;;;;;;;7.13;3.17;;;21.50;99.90;;;;;;4147742;28;20042;-70
2021/08/22 09:34:38;;;;;;;5.32;3.15;;;21.50;99.90;;;;;;4148272;28;20490;-70
2021/08/22 09:37:09;;;;;;;4.65;3.00;;;21.60;99.90;;;;;;4157736;28;20116;-70
2021/08/22 09:39:28;;;;;;;3.03;2.53;;;21.80;99.90;;;;;;4139494;28;20067;-71
2021/08/22 09:42:06;;;;;;;5.68;2.80;;;21.90;99.90;;;;;;4148534;28;20036;-70
2021/08/22 09:44:31;;;;;;;5.22;3.40;;;22.00;99.90;;;;;;4149060;28;20060;-70
2021/08/22 09:47:09;;;;;;;4.10;2.78;;;22.10;99.90;;;;;;4150967;28;20088;-70
2021/08/22 09:49:47;;;;;;;3.95;2.90;;;22.30;99.90;;;;;;4147471;28;20109;-70
2021/08/22 09:51:47;;;;;;;3.75;2.53;;;22.40;99.90;;;;;;4144115;28;20095;-70
2021/08/22 09:54:25;;;;;;;5.25;2.38;;;22.50;99.90;;;;;;4138682;28;20518;-70
2021/08/22 09:57:03;;;;;;;5.20;2.65;;;22.60;99.90;;;;;;4124416;28;20047;-70
2021/08/22 09:59:18;;;;;;;5.75;2.63;;;22.60;99.90;;;;;;4144673;28;20041;-71
2021/08/22 10:01:28;;;;;;;7.03;2.60;;;22.60;99.90;;;;;;4140730;28;20033;-71
2021/08/22 10:03:55;;;;;;;4.18;2.50;;;22.60;99.90;;;;;;4151233;28;20046;-70
2021/08/22 10:06:02;;;;;;;4.65;2.13;;;22.60;99.90;;;;;;4146562;28;20065;-71
2021/08/22 10:08:11;;;;;;;4.05;2.70;;;22.50;99.90;;;;;;4153535;28;20110;-71
2021/08/22 10:10:27;;;;;;;4.53;2.25;;;22.50;99.90;;;;;;4146684;28;20034;-70
2021/08/22 10:12:28;;;;;;;5.28;2.40;;;22.50;99.90;;;;;;4150421;28;20045;-70
2021/08/22 10:14:30;;;;;;;4.32;2.55;;;22.40;99.90;;;;;;4144426;28;20026;-70
2021/08/22 10:16:30;;;;;;;4.27;2.33;;;22.40;99.90;;;;;;4149847;28;20378;-70
2021/08/22 10:18:31;;;;;;;4.88;2.88;;;22.30;99.90;;;;;;4149335;28;20043;-71
2021/08/22 10:20:42;;;;;;;3.63;2.15;;;22.20;99.90;;;;;;4146468;28;20147;-71
2021/08/22 10:22:44;;;;;;;3.97;1.83;;;22.30;99.90;;;;;;4152786;28;20136;-71
2021/08/22 10:24:55;;;;;;;5.28;2.60;;;22.30;99.90;;;;;;4151539;28;20103;-71
2021/08/22 10:26:58;;;;;;;4.35;2.28;;;22.30;99.90;;;;;;4155839;28;20108;-71
2021/08/22 10:29:01;;;;;;;5.68;2.40;;;22.30;99.90;;;;;;4156130;28;20034;-71
2021/08/22 10:31:02;;;;;;;4.45;2.67;;;22.30;99.90;;;;;;4157243;28;20044;-70
2021/08/22 10:33:02;;;;;;;5.28;2.78;;;22.30;99.90;;;;;;4158464;28;20029;-70
2021/08/22 10:35:12;;;;;;;5.80;2.47;;;22.30;99.90;;;;;;4135363;28;20597;-71
2021/08/22 10:37:30;;;;;;;6.85;2.67;;;22.40;99.90;;;;;;4146295;28;20042;-71
2021/08/22 10:39:30;;;;;;;4.78;2.20;;;22.40;99.90;;;;;;4155273;28;20419;-70
2021/08/22 10:41:34;;;;;;;4.72;2.47;;;22.50;99.90;;;;;;4149426;28;20033;-71
2021/08/22 10:43:38;;;;;;;3.58;2.15;;;22.50;99.90;;;;;;4153705;28;20037;-70
2021/08/22 10:45:42;;;;;;;3.70;2.30;;;22.60;99.90;;;;;;4152518;28;20049;-69
2021/08/22 10:47:44;;;;;;;4.45;2.33;;;22.70;99.90;;;;;;4159831;28;20044;-69